VCV weather

Southern California Logistics Airport
Victorville, California, United States

Public forecast

Using degrees Fahrenheit for public forecast. Weather courtesy of forecast.io.

Current aviation weather report (METAR) for Southern California Logistics Airport

Report is more than 2 hours old.

Retrieved 2019/11/20 03:55 UTC (4 hours ago):

KVCV 200355Z 15013KT 10SM BKN100 A2957

Closest aviation forecast (TAF) to Southern California Logistics Airport

Closest forecast is Edwards Air Force Base, 30.9 nm (57.2 km) NW. Retrieved 2019/11/20 06:00 UTC (2 hours ago):

TAF KEDW 200550Z 2006/2112 24010KT 9999 VCSH SCT060 BKN100 BKN200 QNH2953INS BECMG 2010/2011 VRB06KT 9000 -SHRA BKN060 BKN100 BKN200 610604 QNH2945INS BECMG 2018/2019 24012G18KT 9999 NSW BKN060 BKN100 BKN200 610504 510009 QNH2949INS BECMG 2102/2103 24010KT 9999 BKN060 BKN100 BKN200 610504 QNH2952INS BECMG 2110/2111 VRB06KT 9999 SCT060 BKN100 BKN200 QNH2952INS TX13/2022Z TN06/2014Z LAST NO AMDS AFT 2006 NEXT 2014